This is the latest recevied weather packets stored in our database for station/object KELD. If no packets are shown the sender has not sent any weather packets the latest 1 day(s).
| Time | Temp. | Humidity | Pressure | Rain* | Wind** | Luminosity | Snow |
|---|---|---|---|---|---|---|---|
| 1778099011 | 12.78° C | 87% | 1012.9 hPa | - | - | - | - |
| 1778097212 | 12.78° C | 87% | 1013.9 hPa | - | - | - | - |
| 1778096610 | 12.78° C | 87% | 1013.9 hPa | - | - | - | - |
| 1778095408 | 13.89° C | 82% | 1013.9 hPa | - | - | - | - |
| 1778093611 | 12.78° C | 87% | 1014.9 hPa | - | - | - | - |
| 1778087613 | 13.89° C | 87% | 1014.2 hPa | - | - | - | - |
| 1778083534 | 12.78° C | 93% | 1014.2 hPa | - | - | - | - |
| 1778080411 | 13.89° C | 93% | 1013.2 hPa | - | - | - | - |
| 1778079812 | 13.89° C | 93% | 1013.2 hPa | - | - | - | - |
| 1778078611 | 15.56° C | 87% | 1012.2 hPa | - | - | - | - |
| 1778076808 | 15.56° C | 87% | 1012.2 hPa | - | - | - | - |
| 1778075609 | - | - | 1009.1 hPa | - | - | - | - |
| 1778073807 | 20° C | 88% | 1011.2 hPa | - | - | - | - |
| 1778072611 | 22.78° C | 94% | 1010.8 hPa | - | - | - | - |
| 1778071410 | 22.78° C | 88% | 1009.8 hPa | - | - | - | - |
| 1778070210 | 22.78° C | 88% | 1009.8 hPa | - | - | - | - |
| 1778069609 | 22.78° C | 88% | 1009.8 hPa | - | - | - | - |
| 1778069008 | 22.78° C | 88% | 1009.8 hPa | - | - | - | - |
| 1778066011 | 22.78° C | 88% | 1009.5 hPa | - | - | - | - |
| 1778064808 | 22.78° C | 88% | 1008.8 hPa | - | - | - | - |
| 1778064211 | 22.78° C | 88% | 1008.8 hPa | - | - | - | - |
| 1778063011 | 22.78° C | 88% | 1008.8 hPa | - | - | - | - |
| 1778060010 | 22.78° C | 88% | 1007.8 hPa | - | - | - | - |
| 1778059409 | 22.78° C | 88% | 1007.8 hPa | - | - | - | - |
| 1778058809 | 22.78° C | 88% | 1007.8 hPa | - | - | - | - |
* Rain since midnight (hover to see other rain measurements)
** Current wind speed in m/s (hover to see current wind gust speed)